sensor_id;sensor_type;location;lat;lon;timestamp;pressure;altitude;pressure_sealevel;temperature;humidity
66381;BME280;53177;52.648;1.214;2023-03-18T00:01:20;100128.31;;;8.36;100.00
66381;BME280;53177;52.648;1.214;2023-03-18T00:03:47;100125.66;;;8.38;100.00
66381;BME280;53177;52.648;1.214;2023-03-18T00:06:15;100132.44;;;8.46;100.00
66381;BME280;53177;52.648;1.214;2023-03-18T00:08:43;100135.09;;;8.46;100.00
66381;BME280;53177;52.648;1.214;2023-03-18T00:11:10;100132.44;;;8.48;100.00
66381;BME280;53177;52.648;1.214;2023-03-18T00:13:37;100135.00;;;8.51;100.00
66381;BME280;53177;52.648;1.214;2023-03-18T00:16:04;100144.56;;;8.55;100.00
66381;BME280;53177;52.648;1.214;2023-03-18T00:18:31;100134.00;;;8.56;100.00
66381;BME280;53177;52.648;1.214;2023-03-18T00:20:57;100133.94;;;8.58;100.00
66381;BME280;53177;52.648;1.214;2023-03-18T00:23:24;100133.03;;;8.60;100.00
66381;BME280;53177;52.648;1.214;2023-03-18T00:25:51;100141.75;;;8.62;100.00
66381;BME280;53177;52.648;1.214;2023-03-18T00:28:17;100132.09;;;8.61;100.00
66381;BME280;53177;52.648;1.214;2023-03-18T00:30:43;100139.09;;;8.62;100.00
66381;BME280;53177;52.648;1.214;2023-03-18T00:33:09;100139.06;;;8.64;100.00
66381;BME280;53177;52.648;1.214;2023-03-18T00:35:35;100134.53;;;8.70;100.00
66381;BME280;53177;52.648;1.214;2023-03-18T00:38:02;100137.06;;;8.73;100.00
66381;BME280;53177;52.648;1.214;2023-03-18T00:40:29;100132.66;;;8.74;100.00
66381;BME280;53177;52.648;1.214;2023-03-18T00:43:11;100129.09;;;8.76;100.00
66381;BME280;53177;52.648;1.214;2023-03-18T00:45:38;100137.00;;;8.76;100.00
66381;BME280;53177;52.648;1.214;2023-03-18T00:48:05;100136.06;;;8.79;100.00
66381;BME280;53177;52.648;1.214;2023-03-18T00:50:32;100142.13;;;8.83;100.00
66381;BME280;53177;52.648;1.214;2023-03-18T00:52:57;100148.28;;;8.83;100.00
66381;BME280;53177;52.648;1.214;2023-03-18T00:55:23;100164.94;;;8.84;100.00
66381;BME280;53177;52.648;1.214;2023-03-18T00:57:50;100170.97;;;8.89;100.00
66381;BME280;53177;52.648;1.214;2023-03-18T01:00:17;100172.78;;;8.87;100.00
66381;BME280;53177;52.648;1.214;2023-03-18T01:02:44;100173.69;;;8.86;100.00
66381;BME280;53177;52.648;1.214;2023-03-18T01:05:11;100174.47;;;8.89;100.00
66381;BME280;53177;52.648;1.214;2023-03-18T01:07:37;100170.19;;;8.85;100.00
66381;BME280;53177;52.648;1.214;2023-03-18T01:10:04;100175.47;;;8.84;100.00
66381;BME280;53177;52.648;1.214;2023-03-18T01:12:30;100172.91;;;8.82;100.00
66381;BME280;53177;52.648;1.214;2023-03-18T01:14:55;100162.34;;;8.82;100.00
66381;BME280;53177;52.648;1.214;2023-03-18T01:17:22;100169.41;;;8.82;100.00
66381;BME280;53177;52.648;1.214;2023-03-18T01:19:48;100171.13;;;8.83;100.00
66381;BME280;53177;52.648;1.214;2023-03-18T01:22:14;100166.50;;;8.92;100.00
66381;BME280;53177;52.648;1.214;2023-03-18T01:24:39;100165.72;;;8.87;100.00
66381;BME280;53177;52.648;1.214;2023-03-18T01:27:05;100156.09;;;8.86;100.00
66381;BME280;53177;52.648;1.214;2023-03-18T01:29:31;100159.63;;;8.87;100.00
66381;BME280;53177;52.648;1.214;2023-03-18T01:31:57;100159.63;;;8.85;100.00
66381;BME280;53177;52.648;1.214;2023-03-18T01:34:22;100159.72;;;8.82;100.00
66381;BME280;53177;52.648;1.214;2023-03-18T01:36:49;100156.22;;;8.80;100.00
66381;BME280;53177;52.648;1.214;2023-03-18T01:39:14;100150.03;;;8.83;100.00
66381;BME280;53177;52.648;1.214;2023-03-18T01:41:42;100146.47;;;8.84;100.00
66381;BME280;53177;52.648;1.214;2023-03-18T01:44:17;100142.16;;;8.81;100.00
66381;BME280;53177;52.648;1.214;2023-03-18T01:46:44;100136.88;;;8.83;100.00
66381;BME280;53177;52.648;1.214;2023-03-18T01:49:32;100135.16;;;8.80;100.00
66381;BME280;53177;52.648;1.214;2023-03-18T01:52:01;100134.28;;;8.79;100.00
66381;BME280;53177;52.648;1.214;2023-03-18T01:54:31;100135.22;;;8.77;100.00
66381;BME280;53177;52.648;1.214;2023-03-18T01:56:58;100135.16;;;8.80;100.00
66381;BME280;53177;52.648;1.214;2023-03-18T01:59:26;100128.16;;;8.79;100.00
66381;BME280;53177;52.648;1.214;2023-03-18T02:01:57;100129.97;;;8.77;100.00
66381;BME280;53177;52.648;1.214;2023-03-18T02:04:27;100141.44;;;8.74;100.00
66381;BME280;53177;52.648;1.214;2023-03-18T02:06:56;100133.84;;;8.62;100.00
66381;BME280;53177;52.648;1.214;2023-03-18T02:09:22;100129.47;;;8.61;100.00
66381;BME280;53177;52.648;1.214;2023-03-18T02:11:47;100124.19;;;8.61;100.00
66381;BME280;53177;52.648;1.214;2023-03-18T02:14:20;100130.41;;;8.59;100.00
66381;BME280;53177;52.648;1.214;2023-03-18T02:16:58;100133.19;;;8.53;100.00
66381;BME280;53177;52.648;1.214;2023-03-18T02:20:03;100120.19;;;8.45;100.00
66381;BME280;53177;52.648;1.214;2023-03-18T02:27:36;100129.09;;;8.40;100.00
66381;BME280;53177;52.648;1.214;2023-03-18T02:30:10;100120.38;;;8.38;100.00
66381;BME280;53177;52.648;1.214;2023-03-18T02:32:39;100116.94;;;8.34;100.00
66381;BME280;53177;52.648;1.214;2023-03-18T02:35:09;100119.69;;;8.28;100.00
66381;BME280;53177;52.648;1.214;2023-03-18T02:37:36;100127.56;;;8.28;100.00
66381;BME280;53177;52.648;1.214;2023-03-18T02:40:19;100125.03;;;8.25;100.00
66381;BME280;53177;52.648;1.214;2023-03-18T02:42:46;100120.69;;;8.24;100.00
66381;BME280;53177;52.648;1.214;2023-03-18T02:45:22;100118.94;;;8.23;100.00
66381;BME280;53177;52.648;1.214;2023-03-18T02:47:56;100119.03;;;8.18;100.00
66381;BME280;53177;52.648;1.214;2023-03-18T02:50:25;100117.28;;;8.19;100.00
66381;BME280;53177;52.648;1.214;2023-03-18T02:52:50;100123.41;;;8.19;100.00
66381;BME280;53177;52.648;1.214;2023-03-18T02:55:16;100117.22;;;8.20;100.00
66381;BME280;53177;52.648;1.214;2023-03-18T02:57:41;100114.63;;;8.19;100.00
66381;BME280;53177;52.648;1.214;2023-03-18T03:00:07;100118.94;;;8.23;100.00
66381;BME280;53177;52.648;1.214;2023-03-18T03:02:33;100121.50;;;8.24;100.00
66381;BME280;53177;52.648;1.214;2023-03-18T03:04:58;100119.81;;;8.23;100.00
66381;BME280;53177;52.648;1.214;2023-03-18T03:07:27;100123.31;;;8.24;100.00
66381;BME280;53177;52.648;1.214;2023-03-18T03:09:52;100124.16;;;8.24;100.00
66381;BME280;53177;52.648;1.214;2023-03-18T03:12:19;100118.94;;;8.23;100.00
66381;BME280;53177;52.648;1.214;2023-03-18T03:14:44;100123.31;;;8.24;100.00
66381;BME280;53177;52.648;1.214;2023-03-18T03:17:10;100111.84;;;8.26;100.00
66381;BME280;53177;52.648;1.214;2023-03-18T03:19:35;100122.38;;;8.25;100.00
66381;BME280;53177;52.648;1.214;2023-03-18T03:22:01;100121.50;;;8.24;100.00
66381;BME280;53177;52.648;1.214;2023-03-18T03:24:26;100118.84;;;8.27;100.00
66381;BME280;53177;52.648;1.214;2023-03-18T03:26:52;100113.59;;;8.26;100.00
66381;BME280;53177;52.648;1.214;2023-03-18T03:29:17;100120.59;;;8.28;100.00
66381;BME280;53177;52.648;1.214;2023-03-18T03:31:43;100120.59;;;8.28;100.00
66381;BME280;53177;52.648;1.214;2023-03-18T03:34:09;100117.94;;;8.28;100.00
66381;BME280;53177;52.648;1.214;2023-03-18T03:36:35;100125.78;;;8.31;100.00
66381;BME280;53177;52.648;1.214;2023-03-18T03:39:00;100128.41;;;8.31;100.00
66381;BME280;53177;52.648;1.214;2023-03-18T03:41:26;100132.84;;;8.29;100.00
66381;BME280;53177;52.648;1.214;2023-03-18T03:43:52;100127.63;;;8.26;100.00
66381;BME280;53177;52.648;1.214;2023-03-18T03:46:18;100125.84;;;8.28;100.00
66381;BME280;53177;52.648;1.214;2023-03-18T03:48:44;100132.03;;;8.26;100.00
66381;BME280;53177;52.648;1.214;2023-03-18T03:51:09;100137.28;;;8.26;100.00
66381;BME280;53177;52.648;1.214;2023-03-18T03:53:35;100128.53;;;8.25;100.00
66381;BME280;53177;52.648;1.214;2023-03-18T03:56:00;100126.75;;;8.26;100.00
66381;BME280;53177;52.648;1.214;2023-03-18T03:58:26;100124.13;;;8.26;100.00
66381;BME280;53177;52.648;1.214;2023-03-18T04:00:52;100125.84;;;8.28;100.00
66381;BME280;53177;52.648;1.214;2023-03-18T04:03:17;100126.75;;;8.27;100.00
66381;BME280;53177;52.648;1.214;2023-03-18T04:05:42;100126.69;;;8.30;100.00
66381;BME280;53177;52.648;1.214;2023-03-18T04:08:08;100126.69;;;8.30;100.00
66381;BME280;53177;52.648;1.214;2023-03-18T04:10:33;100131.13;;;8.28;100.00
66381;BME280;53177;52.648;1.214;2023-03-18T04:13:01;100126.75;;;8.26;100.00
66381;BME280;53177;52.648;1.214;2023-03-18T04:15:27;100137.28;;;8.26;100.00
66381;BME280;53177;52.648;1.214;2023-03-18T04:17:53;100134.69;;;8.24;100.00
66381;BME280;53177;52.648;1.214;2023-03-18T04:20:20;100123.34;;;8.22;100.00
66381;BME280;53177;52.648;1.214;2023-03-18T04:22:46;100125.09;;;8.22;100.00
66381;BME280;53177;52.648;1.214;2023-03-18T04:25:12;100126.91;;;8.20;100.00
66381;BME280;53177;52.648;1.214;2023-03-18T04:27:39;100124.19;;;8.23;100.00
66381;BME280;53177;52.648;1.214;2023-03-18T04:30:08;100132.00;;;8.27;100.00
66381;BME280;53177;52.648;1.214;2023-03-18T04:32:33;100118.09;;;8.21;100.00
66381;BME280;53177;52.648;1.214;2023-03-18T04:34:59;100118.81;;;8.29;100.00
66381;BME280;53177;52.648;1.214;2023-03-18T04:37:24;100119.81;;;8.23;100.00
66381;BME280;53177;52.648;1.214;2023-03-18T04:39:50;100136.59;;;8.18;100.00
66381;BME280;53177;52.648;1.214;2023-03-18T04:42:15;100144.41;;;8.22;100.00
66381;BME280;53177;52.648;1.214;2023-03-18T04:44:42;100150.72;;;8.14;100.00
66381;BME280;53177;52.648;1.214;2023-03-18T04:47:07;100150.81;;;8.11;100.00
66381;BME280;53177;52.648;1.214;2023-03-18T04:49:33;100155.13;;;8.13;100.00
66381;BME280;53177;52.648;1.214;2023-03-18T04:51:59;100154.41;;;8.07;100.00
66381;BME280;53177;52.648;1.214;2023-03-18T04:54:24;100155.34;;;8.04;100.00
66381;BME280;53177;52.648;1.214;2023-03-18T04:56:50;100148.34;;;8.03;100.00
66381;BME280;53177;52.648;1.214;2023-03-18T04:59:16;100153.66;;;8.00;100.00
66381;BME280;53177;52.648;1.214;2023-03-18T05:01:42;100155.44;;;8.00;100.00
66381;BME280;53177;52.648;1.214;2023-03-18T05:04:07;100162.56;;;7.95;100.00
66381;BME280;53177;52.648;1.214;2023-03-18T05:06:33;100156.44;;;7.94;100.00
66381;BME280;53177;52.648;1.214;2023-03-18T05:08:59;100153.03;;;7.89;100.00
66381;BME280;53177;52.648;1.214;2023-03-18T05:11:26;100148.78;;;7.82;100.00
66381;BME280;53177;52.648;1.214;2023-03-18T05:13:52;100157.59;;;7.81;100.00
66381;BME280;53177;52.648;1.214;2023-03-18T05:16:18;100162.91;;;7.78;100.00
66381;BME280;53177;52.648;1.214;2023-03-18T05:18:43;100161.16;;;7.77;100.00
66381;BME280;53177;52.648;1.214;2023-03-18T05:21:09;100163.88;;;7.72;100.00
66381;BME280;53177;52.648;1.214;2023-03-18T05:23:36;100177.19;;;7.66;100.00
66381;BME280;53177;52.648;1.214;2023-03-18T05:26:02;100168.41;;;7.67;100.00
66381;BME280;53177;52.648;1.214;2023-03-18T05:28:28;100170.22;;;7.64;100.00
66381;BME280;53177;52.648;1.214;2023-03-18T05:30:53;100176.25;;;7.69;100.00
66381;BME280;53177;52.648;1.214;2023-03-18T05:33:19;100177.03;;;7.72;100.00
66381;BME280;53177;52.648;1.214;2023-03-18T05:35:46;100179.78;;;7.68;100.00
66381;BME280;53177;52.648;1.214;2023-03-18T05:38:13;100180.69;;;7.65;100.00
66381;BME280;53177;52.648;1.214;2023-03-18T05:40:47;100178.06;;;7.65;100.00
66381;BME280;53177;52.648;1.214;2023-03-18T05:43:16;100179.00;;;7.63;100.00
66381;BME280;53177;52.648;1.214;2023-03-18T05:45:43;100188.66;;;7.62;100.00
66381;BME280;53177;52.648;1.214;2023-03-18T05:48:08;100181.63;;;7.64;100.00
66381;BME280;53177;52.648;1.214;2023-03-18T05:50:41;100183.34;;;7.65;100.00
66381;BME280;53177;52.648;1.214;2023-03-18T05:53:13;100183.41;;;7.62;100.00
66381;BME280;53177;52.648;1.214;2023-03-18T05:55:40;100180.75;;;7.62;100.00
66381;BME280;53177;52.648;1.214;2023-03-18T05:58:06;100181.66;;;7.61;100.00
66381;BME280;53177;52.648;1.214;2023-03-18T06:00:32;100182.50;;;7.63;100.00
66381;BME280;53177;52.648;1.214;2023-03-18T06:02:59;100190.41;;;7.63;100.00
66381;BME280;53177;52.648;1.214;2023-03-18T06:05:27;100186.06;;;7.61;100.00
66381;BME280;53177;52.648;1.214;2023-03-18T06:07:53;100186.91;;;7.63;100.00
66381;BME280;53177;52.648;1.214;2023-03-18T06:10:20;100179.88;;;7.63;100.00
66381;BME280;53177;52.648;1.214;2023-03-18T06:12:47;100182.44;;;7.66;100.00
66381;BME280;53177;52.648;1.214;2023-03-18T06:15:13;100178.06;;;7.67;100.00
66381;BME280;53177;52.648;1.214;2023-03-18T06:17:39;100177.13;;;7.69;100.00
66381;BME280;53177;52.648;1.214;2023-03-18T06:20:07;100175.34;;;7.71;100.00
66381;BME280;53177;52.648;1.214;2023-03-18T06:22:36;100181.34;;;7.76;100.00
66381;BME280;53177;52.648;1.214;2023-03-18T06:25:02;100177.00;;;7.75;100.00
66381;BME280;53177;52.648;1.214;2023-03-18T06:27:28;100177.84;;;7.77;100.00
66381;BME280;53177;52.648;1.214;2023-03-18T06:29:54;100169.94;;;7.77;100.00
66381;BME280;53177;52.648;1.214;2023-03-18T06:32:20;100173.44;;;7.78;100.00
66381;BME280;53177;52.648;1.214;2023-03-18T06:34:45;100176.06;;;7.79;100.00
66381;BME280;53177;52.648;1.214;2023-03-18T06:37:11;100187.50;;;7.77;100.00
66381;BME280;53177;52.648;1.214;2023-03-18T06:39:37;100191.78;;;7.82;100.00
66381;BME280;53177;52.648;1.214;2023-03-18T06:42:02;100198.88;;;7.79;100.00
66381;BME280;53177;52.648;1.214;2023-03-18T06:44:28;100202.53;;;7.70;100.00
66381;BME280;53177;52.648;1.214;2023-03-18T06:46:54;100203.41;;;7.71;100.00
66381;BME280;53177;52.648;1.214;2023-03-18T06:49:19;100206.94;;;7.70;100.00
66381;BME280;53177;52.648;1.214;2023-03-18T06:51:44;100213.94;;;7.69;100.00
66381;BME280;53177;52.648;1.214;2023-03-18T06:54:10;100216.56;;;7.71;100.00
66381;BME280;53177;52.648;1.214;2023-03-18T06:56:36;100214.75;;;7.73;100.00
66381;BME280;53177;52.648;1.214;2023-03-18T06:59:04;100216.50;;;7.75;100.00
66381;BME280;53177;52.648;1.214;2023-03-18T07:01:29;100219.13;;;7.75;100.00
66381;BME280;53177;52.648;1.214;2023-03-18T07:03:56;100221.69;;;7.78;100.00
66381;BME280;53177;52.648;1.214;2023-03-18T07:06:23;100222.44;;;7.83;100.00
66381;BME280;53177;52.648;1.214;2023-03-18T07:08:48;100222.44;;;7.83;100.00
66381;BME280;53177;52.648;1.214;2023-03-18T07:11:14;100223.31;;;7.84;100.00
66381;BME280;53177;52.648;1.214;2023-03-18T07:13:40;100225.94;;;7.86;100.00
66381;BME280;53177;52.648;1.214;2023-03-18T07:16:06;100218.81;;;7.91;100.00
66381;BME280;53177;52.648;1.214;2023-03-18T07:18:31;100229.34;;;7.91;100.00
66381;BME280;53177;52.648;1.214;2023-03-18T07:20:57;100234.56;;;7.94;100.00
66381;BME280;53177;52.648;1.214;2023-03-18T07:23:23;100233.63;;;7.96;100.00
66381;BME280;53177;52.648;1.214;2023-03-18T07:25:48;100238.00;;;7.97;100.00
66381;BME280;53177;52.648;1.214;2023-03-18T07:28:13;100233.59;;;7.98;100.00
66381;BME280;53177;52.648;1.214;2023-03-18T07:30:39;100237.06;;;7.98;100.00
66381;BME280;53177;52.648;1.214;2023-03-18T07:33:05;100242.25;;;8.03;100.00
66381;BME280;53177;52.648;1.214;2023-03-18T07:35:30;100237.91;;;8.02;100.00
66381;BME280;53177;52.648;1.214;2023-03-18T07:37:56;100246.56;;;8.07;100.00
66381;BME280;53177;52.648;1.214;2023-03-18T07:40:22;100233.31;;;8.11;100.00
66381;BME280;53177;52.648;1.214;2023-03-18T07:42:48;100241.19;;;8.13;100.00
66381;BME280;53177;52.648;1.214;2023-03-18T07:45:16;100245.53;;;8.14;100.00
66381;BME280;53177;52.648;1.214;2023-03-18T07:47:41;100237.63;;;8.14;100.00
66381;BME280;53177;52.648;1.214;2023-03-18T07:50:08;100245.53;;;8.15;100.00
66381;BME280;53177;52.648;1.214;2023-03-18T07:52:33;100248.97;;;8.17;100.00
66381;BME280;53177;52.648;1.214;2023-03-18T07:54:59;100242.75;;;8.21;100.00
66381;BME280;53177;52.648;1.214;2023-03-18T07:57:26;100247.03;;;8.27;100.00
66381;BME280;53177;52.648;1.214;2023-03-18T07:59:51;100255.72;;;8.32;100.00
66381;BME280;53177;52.648;1.214;2023-03-18T08:02:17;100260.00;;;8.38;100.00
66381;BME280;53177;52.648;1.214;2023-03-18T08:04:42;100259.16;;;8.36;100.00
66381;BME280;53177;52.648;1.214;2023-03-18T08:07:08;100262.59;;;8.39;100.00
66381;BME280;53177;52.648;1.214;2023-03-18T08:09:34;100267.06;;;8.36;100.00
66381;BME280;53177;52.648;1.214;2023-03-18T08:12:00;100270.56;;;8.38;100.00
66381;BME280;53177;52.648;1.214;2023-03-18T08:14:26;100267.88;;;8.39;100.00
66381;BME280;53177;52.648;1.214;2023-03-18T08:16:51;100267.06;;;8.36;100.00
66381;BME280;53177;52.648;1.214;2023-03-18T08:19:17;100279.41;;;8.34;100.00
66381;BME280;53177;52.648;1.214;2023-03-18T08:21:42;100270.63;;;8.35;100.00
66381;BME280;53177;52.648;1.214;2023-03-18T08:24:11;100271.41;;;8.38;100.00
66381;BME280;53177;52.648;1.214;2023-03-18T08:26:36;100272.25;;;8.40;100.00
66381;BME280;53177;52.648;1.214;2023-03-18T08:29:02;100274.78;;;8.45;100.00
66381;BME280;53177;52.648;1.214;2023-03-18T08:31:27;100272.88;;;8.51;100.00
66381;BME280;53177;52.648;1.214;2023-03-18T08:33:53;100274.47;;;8.58;100.00
66381;BME280;53177;52.648;1.214;2023-03-18T08:36:21;100274.19;;;8.72;100.00
66381;BME280;53177;52.648;1.214;2023-03-18T08:38:46;100260.91;;;8.76;100.00
66381;BME280;53177;52.648;1.214;2023-03-18T08:41:12;100264.06;;;8.91;100.00
66381;BME280;53177;52.648;1.214;2023-03-18T08:43:37;100264.94;;;8.91;100.00
66381;BME280;53177;52.648;1.214;2023-03-18T08:46:03;100268.34;;;8.96;100.00
66381;BME280;53177;52.648;1.214;2023-03-18T08:48:29;100283.22;;;8.99;100.00
66381;BME280;53177;52.648;1.214;2023-03-18T08:50:55;100281.28;;;9.07;100.00
66381;BME280;53177;52.648;1.214;2023-03-18T08:53:20;100293.59;;;9.08;100.00
66381;BME280;53177;52.648;1.214;2023-03-18T08:55:45;100293.69;;;9.03;100.00
66381;BME280;53177;52.648;1.214;2023-03-18T08:58:11;100293.84;;;8.97;100.00
66381;BME280;53177;52.648;1.214;2023-03-18T09:00:38;100292.16;;;8.93;100.00
66381;BME280;53177;52.648;1.214;2023-03-18T09:03:05;100289.34;;;9.01;100.00
66381;BME280;53177;52.648;1.214;2023-03-18T09:05:31;100281.22;;;9.10;100.00
66381;BME280;53177;52.648;1.214;2023-03-18T09:07:57;100289.97;;;9.12;100.00
66381;BME280;53177;52.648;1.214;2023-03-18T09:10:23;100283.66;;;9.17;100.00
66381;BME280;53177;52.648;1.214;2023-03-18T09:12:49;100277.38;;;9.23;100.00
66381;BME280;53177;52.648;1.214;2023-03-18T09:15:16;100280.75;;;9.28;100.00
66381;BME280;53177;52.648;1.214;2023-03-18T09:17:44;100283.41;;;9.28;100.00
66381;BME280;53177;52.648;1.214;2023-03-18T09:20:12;100279.88;;;9.29;100.00
66381;BME280;53177;52.648;1.214;2023-03-18T09:22:40;100288.69;;;9.28;100.00
66381;BME280;53177;52.648;1.214;2023-03-18T09:25:06;100287.06;;;9.22;100.00
66381;BME280;53177;52.648;1.214;2023-03-18T09:27:32;100283.56;;;9.22;100.00
66381;BME280;53177;52.648;1.214;2023-03-18T09:29:58;100293.22;;;9.23;100.00
66381;BME280;53177;52.648;1.214;2023-03-18T09:32:24;100287.97;;;9.21;100.00
66381;BME280;53177;52.648;1.214;2023-03-18T09:34:50;100280.94;;;9.20;100.00
66381;BME280;53177;52.648;1.214;2023-03-18T09:37:16;100280.75;;;9.28;100.00
66381;BME280;53177;52.648;1.214;2023-03-18T09:39:43;100275.38;;;9.33;100.00
66381;BME280;53177;52.648;1.214;2023-03-18T09:42:29;100278.50;;;9.48;100.00
66381;BME280;53177;52.648;1.214;2023-03-18T09:45:00;100285.34;;;9.57;100.00
66381;BME280;53177;52.648;1.214;2023-03-18T09:48:00;100285.28;;;9.58;100.00
66381;BME280;53177;52.648;1.214;2023-03-18T09:53:49;100284.28;;;9.64;100.00
66381;BME280;53177;52.648;1.214;2023-03-18T09:56:20;100290.19;;;9.72;100.00
66381;BME280;53177;52.648;1.214;2023-03-18T09:58:57;100285.66;;;9.78;100.00
66381;BME280;53177;52.648;1.214;2023-03-18T10:01:26;100278.66;;;9.76;100.00
66381;BME280;53177;52.648;1.214;2023-03-18T10:06:41;100279.50;;;9.78;100.00
66381;BME280;53177;52.648;1.214;2023-03-18T10:11:49;100280.31;;;9.80;100.00
66381;BME280;53177;52.648;1.214;2023-03-18T10:16:53;100285.47;;;9.85;100.00
66381;BME280;53177;52.648;1.214;2023-03-18T10:19:19;100285.38;;;9.88;100.00
66381;BME280;53177;52.648;1.214;2023-03-18T10:31:00;100277.63;;;9.82;100.00
66381;BME280;53177;52.648;1.214;2023-03-18T10:34:10;100274.13;;;9.81;100.00
66381;BME280;53177;52.648;1.214;2023-03-18T10:36:54;100280.28;;;9.82;100.00
66381;BME280;53177;52.648;1.214;2023-03-18T10:39:25;100274.13;;;9.81;100.00
66381;BME280;53177;52.648;1.214;2023-03-18T10:41:53;100280.22;;;9.83;100.00
66381;BME280;53177;52.648;1.214;2023-03-18T10:44:25;100273.06;;;9.87;100.00
66381;BME280;53177;52.648;1.214;2023-03-18T10:47:10;100265.91;;;9.92;100.00
66381;BME280;53177;52.648;1.214;2023-03-18T10:49:42;100269.13;;;10.03;100.00
66381;BME280;53177;52.648;1.214;2023-03-18T10:55:17;100264.59;;;10.39;100.00
66381;BME280;53177;52.648;1.214;2023-03-18T10:57:45;100258.28;;;10.44;100.00
66381;BME280;53177;52.648;1.214;2023-03-18T11:00:36;100243.19;;;10.48;100.00
66381;BME280;53177;52.648;1.214;2023-03-18T11:03:02;100240.44;;;10.51;100.00
66381;BME280;53177;52.648;1.214;2023-03-18T11:05:34;100242.06;;;10.56;100.00
66381;BME280;53177;52.648;1.214;2023-03-18T11:08:07;100243.69;;;10.60;100.00
66381;BME280;53177;52.648;1.214;2023-03-18T11:10:53;100238.41;;;10.60;100.00
66381;BME280;53177;52.648;1.214;2023-03-18T11:13:19;100230.31;;;10.65;100.00
66381;BME280;53177;52.648;1.214;2023-03-18T11:15:54;100230.19;;;10.69;100.00
66381;BME280;53177;52.648;1.214;2023-03-18T11:18:25;100230.47;;;10.88;100.00
66381;BME280;53177;52.648;1.214;2023-03-18T11:20:57;100233.69;;;10.98;100.00
66381;BME280;53177;52.648;1.214;2023-03-18T11:23:35;100237.88;;;11.31;99.33
66381;BME280;53177;52.648;1.214;2023-03-18T11:26:23;100235.06;;;11.62;99.05
66381;BME280;53177;52.648;1.214;2023-03-18T11:28:57;100231.44;;;11.64;96.66
66381;BME280;53177;52.648;1.214;2023-03-18T11:31:22;100238.53;;;11.64;96.53
66381;BME280;53177;52.648;1.214;2023-03-18T11:33:48;100238.97;;;11.50;96.92
66381;BME280;53177;52.648;1.214;2023-03-18T11:36:17;100244.66;;;11.40;97.04
66381;BME280;53177;52.648;1.214;2023-03-18T11:38:55;100238.63;;;11.35;96.52
66381;BME280;53177;52.648;1.214;2023-03-18T11:41:27;100247.09;;;11.19;96.79
66381;BME280;53177;52.648;1.214;2023-03-18T11:44:02;100238.28;;;11.19;96.69
66381;BME280;53177;52.648;1.214;2023-03-18T11:49:32;100241.44;;;11.04;96.71
66381;BME280;53177;52.648;1.214;2023-03-18T12:03:04;100244.13;;;11.02;95.50
66381;BME280;53177;52.648;1.214;2023-03-18T12:08:29;100247.41;;;10.83;95.78
66381;BME280;53177;52.648;1.214;2023-03-18T12:11:18;100242.59;;;10.67;95.92
66381;BME280;53177;52.648;1.214;2023-03-18T12:14:16;100244.47;;;10.64;96.20
66381;BME280;53177;52.648;1.214;2023-03-18T12:16:54;100238.00;;;10.72;96.43
66381;BME280;53177;52.648;1.214;2023-03-18T12:38:41;100218.88;;;10.92;95.16
66381;BME280;53177;52.648;1.214;2023-03-18T12:41:37;100221.66;;;10.88;94.02
66381;BME280;53177;52.648;1.214;2023-03-18T12:49:48;100218.47;;;10.78;95.07
66381;BME280;53177;52.648;1.214;2023-03-18T12:55:28;100210.31;;;10.84;95.31
66381;BME280;53177;52.648;1.214;2023-03-18T12:58:02;100215.59;;;10.84;95.83
66381;BME280;53177;52.648;1.214;2023-03-18T13:00:37;100215.94;;;10.73;94.84
66381;BME280;53177;52.648;1.214;2023-03-18T13:05:52;100208.16;;;10.69;94.71
66381;BME280;53177;52.648;1.214;2023-03-18T13:11:33;100218.97;;;10.61;94.84
66381;BME280;53177;52.648;1.214;2023-03-18T13:14:40;100208.53;;;10.57;95.05
66381;BME280;53177;52.648;1.214;2023-03-18T13:17:11;100199.75;;;10.56;95.29
66381;BME280;53177;52.648;1.214;2023-03-18T13:19:39;100199.75;;;10.56;95.99
66381;BME280;53177;52.648;1.214;2023-03-18T13:22:48;100205.13;;;10.53;96.56
66381;BME280;53177;52.648;1.214;2023-03-18T13:33:49;100199.88;;;10.52;97.47
66381;BME280;53177;52.648;1.214;2023-03-18T13:36:24;100208.81;;;10.48;97.41
66381;BME280;53177;52.648;1.214;2023-03-18T13:40:16;100198.50;;;10.39;97.75
66381;BME280;53177;52.648;1.214;2023-03-18T13:42:29;100201.31;;;10.34;98.14
66381;BME280;53177;52.648;1.214;2023-03-18T13:47:54;100201.13;;;10.40;98.48
66381;BME280;53177;52.648;1.214;2023-03-18T13:50:25;100194.00;;;10.42;98.30
66381;BME280;53177;52.648;1.214;2023-03-18T13:52:55;100194.94;;;10.41;97.48
66381;BME280;53177;52.648;1.214;2023-03-18T13:57:55;100184.72;;;10.29;97.99
66381;BME280;53177;52.648;1.214;2023-03-18T14:00:27;100186.41;;;10.32;97.88
66381;BME280;53177;52.648;1.214;2023-03-18T14:03:14;100181.13;;;10.32;97.60
66381;BME280;53177;52.648;1.214;2023-03-18T14:05:42;100192.75;;;10.26;97.67
66381;BME280;53177;52.648;1.214;2023-03-18T14:14:03;100176.75;;;10.31;97.78
66381;BME280;53177;52.648;1.214;2023-03-18T14:16:50;100177.56;;;10.33;97.64
66381;BME280;53177;52.648;1.214;2023-03-18T14:19:19;100178.63;;;10.27;97.29
66381;BME280;53177;52.648;1.214;2023-03-18T14:21:50;100179.22;;;10.37;97.45
66381;BME280;53177;52.648;1.214;2023-03-18T14:29:42;100176.66;;;10.34;96.35
66381;BME280;53177;52.648;1.214;2023-03-18T14:35:00;100173.34;;;10.27;96.12
66381;BME280;53177;52.648;1.214;2023-03-18T14:37:30;100171.53;;;10.27;95.92
66381;BME280;53177;52.648;1.214;2023-03-18T14:40:22;100172.63;;;10.22;95.91
66381;BME280;53177;52.648;1.214;2023-03-18T14:43:00;100170.94;;;10.19;96.16
66381;BME280;53177;52.648;1.214;2023-03-18T14:45:30;100164.78;;;10.19;96.42
66381;BME280;53177;52.648;1.214;2023-03-18T14:47:58;100171.31;;;10.35;96.40